Airfield :
LOGIN :

Register | Disclaimer

   EN    FR    IT 

 










Legend :    VFR   Marginal VFR   IFR   Intensive IFR   Very Intensive IFR
Visi :
Ceiling :
>= 8 km
>= 3000ft
5 to 8 km
1000 to 3000 ft
1500m to 5 km
500 to 1000 ft
800 to 1500m
200 to 500 ft
< 800m
< 200 ft
Symbols :   Thunderstorms  Fog  Heavy snow  Heavy precipitations  Wind > 20 kt
SIGMETs :     Misc.  Thunderstorms  Icing  Turbulence  Mountain Waves  Volcanic Ashes







- Airport Elevation : 11 ft
- IATA code : SXL


EISG - Sligo

EXPIRED METARs :
  • 211700Z 16007KT 130V190 9999 -RA SCT010 OVC017 17/17 Q1007
  • 211630Z 16006KT 130V200 9999 -RA SCT012 OVC019 17/17 Q////

TAF TAF EISG
Valid from the 21 at 18:00 until the 22 at 03:00 UTC


211700Z 2118/2203 16013KT 9999 -RA BKN012
BECMG 2118/2121 21012KT
TEMPO 2118/2201 4000 -RADZ BKN007 SCT018CB
PROB40
TEMPO 2118/2121 3000 RA BKN005
PROB40
TEMPO 2121/2203 2000 -RADZ BR BKN003
No reported NOTAMs for that airfield.



MET'MAP, your aeronautical weather chart ! - Copyright ORBIFLY December 2007 - Disclaimer

ORBIFLY MET'MAP TEAM :

Programming & Development : Alexandra Zaïnal
Concept & Development : Baudouin d'Aumeries
Co-Development & Prog : Marc-Olivier Méhu
Technical & hardware support : Manuel Goepfert

Contact : metmap@orbifly.com




SOURCES & CREDITS :

   NOAA